Lancaster, PA

8:13 PM EDT on June 03, 2015 (GMT -0400)
Chester County Carlson | | Change Station
CLOSE
Current Station
Airport
Location: Coatesville,
Elevation: 659 ft
Nearby Weather Stations

Elev 659 ft 39.98 °N, 75.87 °W | Updated 18 minutes ago

Overcast
Overcast
63 °F
Feels Like 63 °F
N
0
Wind Variable Wind from North

Today
High -- | Low -- °F
--% Chance of Precip.
Yesterday
High -- | Low -- °F
Precip. -- in
5:37 AM 8:28 PM
Full, 98% visible
Pressure 30.18 in
Visibility 10.0 miles
Clouds Mostly Cloudy 3100 ft
Mostly Cloudy 4000 ft
Overcast 6500 ft
Dew Point 55 °F
Humidity 77%
Rainfall 0.01 in
Snow Depth Not available.
UV 0 out of 12
Pollen 4.00 out of 12
Air Quality Not available.
Flu Activity Sporadic
METAR KMQS 032355Z AUTO 00000KT 10SM BKN031 BKN040 OVC065 17/13 A3018 RMK AO2

More Conditions Fewer Conditions

Pressure 30.18 in
Visibility 10.0 miles
Clouds Mostly Cloudy 3100 ft
Mostly Cloudy 4000 ft
Overcast 6500 ft
Dew Point 55 °F
Humidity 77%
Rainfall 0.01 in
Snow Depth Not available.
UV 0 out of 12
Pollen 4.00 out of 12
Air Quality Not available.
Flu Activity Sporadic
METAR KMQS 032355Z AUTO 00000KT 10SM BKN031 BKN040 OVC065 17/13 A3018 RMK AO2

More Conditions Fewer Conditions

10-Day Weather Forecast

×

Almanac

Astronomy

Jun. 03, 2015 Rise Set
Actual Time
Civil Twilight
Nautical Twilight
Astronomical Twilight
Moon
Length of Visible Light
Length of Day
Tomorrow will be .
, % of the Moon is Illuminated

Today's Extremes

State Highs State Lows

Community

WunderPhotos

Upload Photos

1,826,310 photos uploaded!

WunderBlogs® & News

Nearby

Air Quality

  Air Quality AQ Index Pollutant
Not available.

Snow Depth

Station Depth Elevation

Earthquake Activity

City Distance Mag. Time & Date
Minimum magnitude displayed is 2.5.

Coastal Water Temperatures

Place Temperature

Stations

Nearby Weather Stations

Station Location Temp. Windchill Dew Point Humidity Wind Precip. Elev Updated Type